sensor_id;sensor_type;location;lat;lon;timestamp;temperature;humidity
29501;DHT22;16450;50.288;10.966;2023-03-26T00:02:00;7.60;99.90
29501;DHT22;16450;50.288;10.966;2023-03-26T00:05:02;7.50;99.90
29501;DHT22;16450;50.288;10.966;2023-03-26T00:08:05;7.40;99.90
29501;DHT22;16450;50.288;10.966;2023-03-26T00:11:10;7.40;99.90
29501;DHT22;16450;50.288;10.966;2023-03-26T00:14:13;7.30;99.90
29501;DHT22;16450;50.288;10.966;2023-03-26T00:17:18;7.20;99.90
29501;DHT22;16450;50.288;10.966;2023-03-26T00:20:19;7.20;99.90
29501;DHT22;16450;50.288;10.966;2023-03-26T00:23:21;7.20;99.90
29501;DHT22;16450;50.288;10.966;2023-03-26T00:26:25;7.20;99.90
29501;DHT22;16450;50.288;10.966;2023-03-26T00:29:27;7.20;99.90
29501;DHT22;16450;50.288;10.966;2023-03-26T00:32:29;7.20;99.90
29501;DHT22;16450;50.288;10.966;2023-03-26T00:35:33;7.20;99.90
29501;DHT22;16450;50.288;10.966;2023-03-26T00:38:36;7.30;99.90
29501;DHT22;16450;50.288;10.966;2023-03-26T00:41:39;7.30;99.90
29501;DHT22;16450;50.288;10.966;2023-03-26T00:44:44;7.30;99.90
29501;DHT22;16450;50.288;10.966;2023-03-26T00:47:46;7.20;99.90
29501;DHT22;16450;50.288;10.966;2023-03-26T00:50:48;7.30;99.90
29501;DHT22;16450;50.288;10.966;2023-03-26T00:53:51;7.30;99.90
29501;DHT22;16450;50.288;10.966;2023-03-26T00:56:53;7.30;99.90
29501;DHT22;16450;50.288;10.966;2023-03-26T00:59:56;7.20;99.90
29501;DHT22;16450;50.288;10.966;2023-03-26T01:02:58;7.20;99.90
29501;DHT22;16450;50.288;10.966;2023-03-26T01:06:02;7.20;99.90
29501;DHT22;16450;50.288;10.966;2023-03-26T01:09:14;7.20;99.90
29501;DHT22;16450;50.288;10.966;2023-03-26T01:12:19;7.20;99.90
29501;DHT22;16450;50.288;10.966;2023-03-26T01:15:22;7.20;99.90
29501;DHT22;16450;50.288;10.966;2023-03-26T01:18:31;7.10;99.90
29501;DHT22;16450;50.288;10.966;2023-03-26T01:21:35;7.10;99.90
29501;DHT22;16450;50.288;10.966;2023-03-26T01:24:40;7.10;99.90
29501;DHT22;16450;50.288;10.966;2023-03-26T01:27:49;7.10;99.90
29501;DHT22;16450;50.288;10.966;2023-03-26T01:31:05;7.10;99.90
29501;DHT22;16450;50.288;10.966;2023-03-26T01:41:03;7.20;99.90
29501;DHT22;16450;50.288;10.966;2023-03-26T01:47:25;7.20;99.90
29501;DHT22;16450;50.288;10.966;2023-03-26T01:50:28;7.20;99.90
29501;DHT22;16450;50.288;10.966;2023-03-26T01:53:31;7.30;99.90
29501;DHT22;16450;50.288;10.966;2023-03-26T02:03:36;7.20;99.90
29501;DHT22;16450;50.288;10.966;2023-03-26T02:06:46;7.20;99.90
29501;DHT22;16450;50.288;10.966;2023-03-26T02:09:54;7.20;99.90
29501;DHT22;16450;50.288;10.966;2023-03-26T02:12:59;7.10;99.90
29501;DHT22;16450;50.288;10.966;2023-03-26T02:16:04;7.10;99.90
29501;DHT22;16450;50.288;10.966;2023-03-26T02:19:06;7.10;99.90
29501;DHT22;16450;50.288;10.966;2023-03-26T02:22:16;7.00;99.90
29501;DHT22;16450;50.288;10.966;2023-03-26T02:25:19;7.00;99.90
29501;DHT22;16450;50.288;10.966;2023-03-26T02:28:21;6.90;99.90
29501;DHT22;16450;50.288;10.966;2023-03-26T02:31:24;6.90;99.90
29501;DHT22;16450;50.288;10.966;2023-03-26T02:34:27;6.90;99.90
29501;DHT22;16450;50.288;10.966;2023-03-26T02:37:28;6.90;99.90
29501;DHT22;16450;50.288;10.966;2023-03-26T02:40:31;6.90;99.90
29501;DHT22;16450;50.288;10.966;2023-03-26T02:43:32;6.90;99.90
29501;DHT22;16450;50.288;10.966;2023-03-26T02:46:34;7.00;99.90
29501;DHT22;16450;50.288;10.966;2023-03-26T02:49:36;7.00;99.90
29501;DHT22;16450;50.288;10.966;2023-03-26T02:52:38;7.00;99.90
29501;DHT22;16450;50.288;10.966;2023-03-26T02:55:40;7.00;99.90
29501;DHT22;16450;50.288;10.966;2023-03-26T02:58:42;7.00;99.90
29501;DHT22;16450;50.288;10.966;2023-03-26T03:01:44;7.00;99.90
29501;DHT22;16450;50.288;10.966;2023-03-26T03:04:45;7.10;99.90
29501;DHT22;16450;50.288;10.966;2023-03-26T03:07:47;7.10;99.90
29501;DHT22;16450;50.288;10.966;2023-03-26T03:11:00;7.10;99.90
29501;DHT22;16450;50.288;10.966;2023-03-26T03:14:02;7.10;99.90
29501;DHT22;16450;50.288;10.966;2023-03-26T03:17:04;7.10;99.90
29501;DHT22;16450;50.288;10.966;2023-03-26T03:20:07;7.10;99.90
29501;DHT22;16450;50.288;10.966;2023-03-26T03:23:12;7.10;99.90
29501;DHT22;16450;50.288;10.966;2023-03-26T03:26:17;7.10;99.90
29501;DHT22;16450;50.288;10.966;2023-03-26T03:29:22;7.10;99.90
29501;DHT22;16450;50.288;10.966;2023-03-26T03:32:24;7.00;99.90
29501;DHT22;16450;50.288;10.966;2023-03-26T03:35:27;7.10;99.90
29501;DHT22;16450;50.288;10.966;2023-03-26T03:38:30;7.00;99.90
29501;DHT22;16450;50.288;10.966;2023-03-26T03:41:32;7.00;99.90
29501;DHT22;16450;50.288;10.966;2023-03-26T03:44:34;7.00;99.90
29501;DHT22;16450;50.288;10.966;2023-03-26T03:47:36;7.00;99.90
29501;DHT22;16450;50.288;10.966;2023-03-26T03:50:38;7.00;99.90
29501;DHT22;16450;50.288;10.966;2023-03-26T03:53:40;7.00;99.90
29501;DHT22;16450;50.288;10.966;2023-03-26T03:56:42;7.00;99.90
29501;DHT22;16450;50.288;10.966;2023-03-26T03:59:46;7.00;99.90
29501;DHT22;16450;50.288;10.966;2023-03-26T04:02:49;7.00;99.90
29501;DHT22;16450;50.288;10.966;2023-03-26T04:05:51;7.00;99.90
29501;DHT22;16450;50.288;10.966;2023-03-26T04:08:55;7.00;99.90
29501;DHT22;16450;50.288;10.966;2023-03-26T04:11:57;7.00;99.90
29501;DHT22;16450;50.288;10.966;2023-03-26T04:14:59;7.00;99.90
29501;DHT22;16450;50.288;10.966;2023-03-26T04:18:01;7.00;99.90
29501;DHT22;16450;50.288;10.966;2023-03-26T04:21:04;7.00;99.90
29501;DHT22;16450;50.288;10.966;2023-03-26T04:24:08;7.00;99.90
29501;DHT22;16450;50.288;10.966;2023-03-26T04:27:14;7.00;99.90
29501;DHT22;16450;50.288;10.966;2023-03-26T04:30:18;7.00;99.90
29501;DHT22;16450;50.288;10.966;2023-03-26T04:33:21;7.00;99.90
29501;DHT22;16450;50.288;10.966;2023-03-26T04:36:26;6.90;99.90
29501;DHT22;16450;50.288;10.966;2023-03-26T04:39:29;7.00;99.90
29501;DHT22;16450;50.288;10.966;2023-03-26T04:42:31;6.80;99.90
29501;DHT22;16450;50.288;10.966;2023-03-26T04:45:33;6.90;99.90
29501;DHT22;16450;50.288;10.966;2023-03-26T04:48:36;6.90;99.90
29501;DHT22;16450;50.288;10.966;2023-03-26T04:51:39;6.90;99.90
29501;DHT22;16450;50.288;10.966;2023-03-26T04:54:43;6.80;99.90
29501;DHT22;16450;50.288;10.966;2023-03-26T04:57:52;6.80;99.90
29501;DHT22;16450;50.288;10.966;2023-03-26T05:00:56;6.80;99.90
29501;DHT22;16450;50.288;10.966;2023-03-26T05:04:12;6.70;99.90
29501;DHT22;16450;50.288;10.966;2023-03-26T05:07:17;6.70;99.90
29501;DHT22;16450;50.288;10.966;2023-03-26T05:10:20;6.70;99.90
29501;DHT22;16450;50.288;10.966;2023-03-26T05:13:23;6.70;99.90
29501;DHT22;16450;50.288;10.966;2023-03-26T05:16:26;6.70;99.90
29501;DHT22;16450;50.288;10.966;2023-03-26T05:19:28;6.70;99.90
29501;DHT22;16450;50.288;10.966;2023-03-26T05:22:30;6.70;99.90
29501;DHT22;16450;50.288;10.966;2023-03-26T05:25:32;6.70;99.90
29501;DHT22;16450;50.288;10.966;2023-03-26T05:28:35;6.70;99.90
29501;DHT22;16450;50.288;10.966;2023-03-26T05:31:37;6.70;99.90
29501;DHT22;16450;50.288;10.966;2023-03-26T05:34:39;6.70;99.90
29501;DHT22;16450;50.288;10.966;2023-03-26T05:37:45;6.80;99.90
29501;DHT22;16450;50.288;10.966;2023-03-26T05:40:47;6.70;99.90
29501;DHT22;16450;50.288;10.966;2023-03-26T05:43:49;6.80;99.90
29501;DHT22;16450;50.288;10.966;2023-03-26T05:46:52;6.70;99.90
29501;DHT22;16450;50.288;10.966;2023-03-26T05:49:53;6.80;99.90
29501;DHT22;16450;50.288;10.966;2023-03-26T05:52:55;6.80;99.90
29501;DHT22;16450;50.288;10.966;2023-03-26T05:55:57;6.80;99.90
29501;DHT22;16450;50.288;10.966;2023-03-26T05:58:59;6.80;99.90
29501;DHT22;16450;50.288;10.966;2023-03-26T06:02:01;6.90;99.90
29501;DHT22;16450;50.288;10.966;2023-03-26T06:05:03;6.90;99.90
29501;DHT22;16450;50.288;10.966;2023-03-26T06:08:05;6.90;99.90
29501;DHT22;16450;50.288;10.966;2023-03-26T06:11:09;6.90;99.90
29501;DHT22;16450;50.288;10.966;2023-03-26T06:14:13;7.00;99.90
29501;DHT22;16450;50.288;10.966;2023-03-26T06:17:15;7.00;99.90
29501;DHT22;16450;50.288;10.966;2023-03-26T06:20:17;7.00;99.90
29501;DHT22;16450;50.288;10.966;2023-03-26T06:23:19;7.10;99.90
29501;DHT22;16450;50.288;10.966;2023-03-26T06:26:21;7.10;99.90
29501;DHT22;16450;50.288;10.966;2023-03-26T06:29:23;7.10;99.90
29501;DHT22;16450;50.288;10.966;2023-03-26T06:32:25;7.20;99.90
29501;DHT22;16450;50.288;10.966;2023-03-26T06:35:27;7.20;99.90
29501;DHT22;16450;50.288;10.966;2023-03-26T06:38:30;7.20;99.90
29501;DHT22;16450;50.288;10.966;2023-03-26T06:41:33;7.30;99.90
29501;DHT22;16450;50.288;10.966;2023-03-26T06:44:35;7.30;99.90
29501;DHT22;16450;50.288;10.966;2023-03-26T06:47:37;7.30;99.90
29501;DHT22;16450;50.288;10.966;2023-03-26T06:50:39;7.40;99.90
29501;DHT22;16450;50.288;10.966;2023-03-26T06:53:41;7.30;99.90
29501;DHT22;16450;50.288;10.966;2023-03-26T06:56:42;7.40;99.90
29501;DHT22;16450;50.288;10.966;2023-03-26T06:59:45;7.40;99.90
29501;DHT22;16450;50.288;10.966;2023-03-26T07:02:47;7.40;99.90
29501;DHT22;16450;50.288;10.966;2023-03-26T07:05:49;7.40;99.90
29501;DHT22;16450;50.288;10.966;2023-03-26T07:08:51;7.40;99.90
29501;DHT22;16450;50.288;10.966;2023-03-26T07:11:53;7.40;99.90
29501;DHT22;16450;50.288;10.966;2023-03-26T07:14:55;7.50;99.90
29501;DHT22;16450;50.288;10.966;2023-03-26T07:18:00;7.50;99.90
29501;DHT22;16450;50.288;10.966;2023-03-26T07:21:02;7.60;99.90
29501;DHT22;16450;50.288;10.966;2023-03-26T07:24:04;7.60;99.90
29501;DHT22;16450;50.288;10.966;2023-03-26T07:27:48;7.60;99.90
29501;DHT22;16450;50.288;10.966;2023-03-26T07:47:23;7.80;99.90
29501;DHT22;16450;50.288;10.966;2023-03-26T07:50:27;7.80;99.90
29501;DHT22;16450;50.288;10.966;2023-03-26T07:53:30;7.90;99.90
29501;DHT22;16450;50.288;10.966;2023-03-26T07:56:39;7.90;99.90
29501;DHT22;16450;50.288;10.966;2023-03-26T07:59:51;7.90;99.90
29501;DHT22;16450;50.288;10.966;2023-03-26T08:06:27;8.00;99.90
29501;DHT22;16450;50.288;10.966;2023-03-26T08:09:37;8.00;99.90
29501;DHT22;16450;50.288;10.966;2023-03-26T08:12:51;8.00;99.90
29501;DHT22;16450;50.288;10.966;2023-03-26T08:16:13;8.00;99.90
29501;DHT22;16450;50.288;10.966;2023-03-26T08:19:50;8.00;99.90
29501;DHT22;16450;50.288;10.966;2023-03-26T08:30:14;8.10;99.90
29501;DHT22;16450;50.288;10.966;2023-03-26T08:33:19;8.20;99.90
29501;DHT22;16450;50.288;10.966;2023-03-26T08:36:21;8.20;99.90
29501;DHT22;16450;50.288;10.966;2023-03-26T08:39:24;8.30;99.90
29501;DHT22;16450;50.288;10.966;2023-03-26T08:46:39;8.50;99.90
29501;DHT22;16450;50.288;10.966;2023-03-26T08:53:23;8.60;99.90
29501;DHT22;16450;50.288;10.966;2023-03-26T08:56:30;8.60;99.90
29501;DHT22;16450;50.288;10.966;2023-03-26T08:59:50;8.70;99.90
29501;DHT22;16450;50.288;10.966;2023-03-26T09:09:44;8.70;99.90
29501;DHT22;16450;50.288;10.966;2023-03-26T09:13:20;8.70;99.90
29501;DHT22;16450;50.288;10.966;2023-03-26T09:33:26;8.90;99.90
29501;DHT22;16450;50.288;10.966;2023-03-26T09:37:03;9.00;99.90
29501;DHT22;16450;50.288;10.966;2023-03-26T09:40:17;9.00;99.90
29501;DHT22;16450;50.288;10.966;2023-03-26T09:43:41;9.00;99.90
29501;DHT22;16450;50.288;10.966;2023-03-26T09:47:08;9.10;99.90
29501;DHT22;16450;50.288;10.966;2023-03-26T09:50:46;9.10;99.90
29501;DHT22;16450;50.288;10.966;2023-03-26T10:11:57;8.90;99.90
29501;DHT22;16450;50.288;10.966;2023-03-26T10:15:30;8.90;99.90
29501;DHT22;16450;50.288;10.966;2023-03-26T10:22:01;8.70;99.90
29501;DHT22;16450;50.288;10.966;2023-03-26T10:25:24;8.70;99.90
29501;DHT22;16450;50.288;10.966;2023-03-26T10:28:38;8.70;99.90
29501;DHT22;16450;50.288;10.966;2023-03-26T10:39:01;8.50;99.90
29501;DHT22;16450;50.288;10.966;2023-03-26T10:42:20;8.30;99.90
29501;DHT22;16450;50.288;10.966;2023-03-26T10:48:49;8.00;99.90
29501;DHT22;16450;50.288;10.966;2023-03-26T10:52:03;7.80;99.90
29501;DHT22;16450;50.288;10.966;2023-03-26T10:55:18;7.80;99.90
29501;DHT22;16450;50.288;10.966;2023-03-26T10:58:29;7.70;99.90
29501;DHT22;16450;50.288;10.966;2023-03-26T11:02:28;7.60;99.90
29501;DHT22;16450;50.288;10.966;2023-03-26T11:15:39;7.40;99.90
29501;DHT22;16450;50.288;10.966;2023-03-26T11:18:44;7.40;99.90
29501;DHT22;16450;50.288;10.966;2023-03-26T11:25:33;7.40;99.90
29501;DHT22;16450;50.288;10.966;2023-03-26T11:35:30;7.50;99.90
29501;DHT22;16450;50.288;10.966;2023-03-26T11:38:45;7.50;99.90
29501;DHT22;16450;50.288;10.966;2023-03-26T11:41:48;7.50;99.90
29501;DHT22;16450;50.288;10.966;2023-03-26T11:44:59;7.40;99.90
29501;DHT22;16450;50.288;10.966;2023-03-26T11:48:13;7.40;99.90
29501;DHT22;16450;50.288;10.966;2023-03-26T11:51:31;7.50;99.90
29501;DHT22;16450;50.288;10.966;2023-03-26T11:54:34;7.50;99.90
29501;DHT22;16450;50.288;10.966;2023-03-26T11:57:39;7.60;99.90
29501;DHT22;16450;50.288;10.966;2023-03-26T12:00:43;7.50;99.90
29501;DHT22;16450;50.288;10.966;2023-03-26T12:04:04;7.40;99.90
29501;DHT22;16450;50.288;10.966;2023-03-26T12:10:35;7.40;99.90
29501;DHT22;16450;50.288;10.966;2023-03-26T12:13:43;7.40;99.90
29501;DHT22;16450;50.288;10.966;2023-03-26T12:17:07;7.40;99.90
29501;DHT22;16450;50.288;10.966;2023-03-26T12:26:44;7.30;99.90
29501;DHT22;16450;50.288;10.966;2023-03-26T12:30:23;7.40;99.90
29501;DHT22;16450;50.288;10.966;2023-03-26T12:33:31;7.50;99.90
29501;DHT22;16450;50.288;10.966;2023-03-26T12:36:36;7.70;99.90
29501;DHT22;16450;50.288;10.966;2023-03-26T12:39:41;7.80;99.90
29501;DHT22;16450;50.288;10.966;2023-03-26T12:43:24;8.00;99.90
29501;DHT22;16450;50.288;10.966;2023-03-26T12:46:49;8.10;99.90
29501;DHT22;16450;50.288;10.966;2023-03-26T12:50:15;8.20;99.90
29501;DHT22;16450;50.288;10.966;2023-03-26T12:53:33;8.20;99.90
29501;DHT22;16450;50.288;10.966;2023-03-26T13:00:24;8.20;99.90
29501;DHT22;16450;50.288;10.966;2023-03-26T13:06:41;8.10;99.90
29501;DHT22;16450;50.288;10.966;2023-03-26T13:19:54;7.80;99.90
29501;DHT22;16450;50.288;10.966;2023-03-26T13:23:39;7.80;99.90
29501;DHT22;16450;50.288;10.966;2023-03-26T13:27:11;7.90;99.90
29501;DHT22;16450;50.288;10.966;2023-03-26T13:30:46;7.90;99.90
29501;DHT22;16450;50.288;10.966;2023-03-26T13:40:39;8.10;99.90
29501;DHT22;16450;50.288;10.966;2023-03-26T13:47:09;8.40;99.90
29501;DHT22;16450;50.288;10.966;2023-03-26T13:50:17;8.60;99.90
29501;DHT22;16450;50.288;10.966;2023-03-26T13:53:25;8.70;99.90
29501;DHT22;16450;50.288;10.966;2023-03-26T13:56:35;8.80;99.90
29501;DHT22;16450;50.288;10.966;2023-03-26T13:59:55;8.90;99.90
29501;DHT22;16450;50.288;10.966;2023-03-26T14:03:07;9.00;99.90
29501;DHT22;16450;50.288;10.966;2023-03-26T14:06:42;9.00;99.90
29501;DHT22;16450;50.288;10.966;2023-03-26T14:13:19;9.00;99.90
29501;DHT22;16450;50.288;10.966;2023-03-26T14:16:28;9.00;99.90
29501;DHT22;16450;50.288;10.966;2023-03-26T14:20:06;9.00;99.90
29501;DHT22;16450;50.288;10.966;2023-03-26T14:23:22;9.00;99.90
29501;DHT22;16450;50.288;10.966;2023-03-26T14:52:49;9.10;99.90
29501;DHT22;16450;50.288;10.966;2023-03-26T15:03:42;9.10;99.90
29501;DHT22;16450;50.288;10.966;2023-03-26T15:10:09;9.00;99.90
29501;DHT22;16450;50.288;10.966;2023-03-26T15:34:13;8.90;99.90
29501;DHT22;16450;50.288;10.966;2023-03-26T15:40:59;9.00;99.90
29501;DHT22;16450;50.288;10.966;2023-03-26T15:57:54;9.10;99.90
29501;DHT22;16450;50.288;10.966;2023-03-26T16:01:18;9.10;99.90
29501;DHT22;16450;50.288;10.966;2023-03-26T16:04:37;9.10;99.90
29501;DHT22;16450;50.288;10.966;2023-03-26T16:08:11;9.10;99.90
29501;DHT22;16450;50.288;10.966;2023-03-26T16:11:42;9.00;99.90
29501;DHT22;16450;50.288;10.966;2023-03-26T16:14:47;9.00;99.90
29501;DHT22;16450;50.288;10.966;2023-03-26T16:21:34;8.90;99.90
29501;DHT22;16450;50.288;10.966;2023-03-26T16:24:42;8.80;99.90
29501;DHT22;16450;50.288;10.966;2023-03-26T16:27:45;8.80;99.90
29501;DHT22;16450;50.288;10.966;2023-03-26T16:37:42;8.60;99.90
29501;DHT22;16450;50.288;10.966;2023-03-26T16:41:04;8.60;99.90
29501;DHT22;16450;50.288;10.966;2023-03-26T16:44:26;8.50;99.90
29501;DHT22;16450;50.288;10.966;2023-03-26T16:47:54;8.50;99.90
29501;DHT22;16450;50.288;10.966;2023-03-26T16:51:47;8.40;99.90
29501;DHT22;16450;50.288;10.966;2023-03-26T16:55:21;8.40;99.90
29501;DHT22;16450;50.288;10.966;2023-03-26T16:58:43;8.40;99.90
29501;DHT22;16450;50.288;10.966;2023-03-26T17:01:57;8.40;99.90
29501;DHT22;16450;50.288;10.966;2023-03-26T17:05:31;8.30;99.90
29501;DHT22;16450;50.288;10.966;2023-03-26T17:09:01;8.30;99.90
29501;DHT22;16450;50.288;10.966;2023-03-26T17:12:16;8.30;99.90
29501;DHT22;16450;50.288;10.966;2023-03-26T17:15:22;8.20;99.90
29501;DHT22;16450;50.288;10.966;2023-03-26T17:35:03;7.90;99.90
29501;DHT22;16450;50.288;10.966;2023-03-26T17:41:51;7.80;99.90
29501;DHT22;16450;50.288;10.966;2023-03-26T17:45:01;7.80;99.90
29501;DHT22;16450;50.288;10.966;2023-03-26T17:48:19;7.70;99.90
29501;DHT22;16450;50.288;10.966;2023-03-26T17:51:47;7.70;99.90
29501;DHT22;16450;50.288;10.966;2023-03-26T17:54:54;7.70;99.90
29501;DHT22;16450;50.288;10.966;2023-03-26T17:57:59;7.70;99.90
29501;DHT22;16450;50.288;10.966;2023-03-26T18:01:28;7.70;99.90
29501;DHT22;16450;50.288;10.966;2023-03-26T18:04:35;7.70;99.90
29501;DHT22;16450;50.288;10.966;2023-03-26T18:08:06;7.60;99.90
29501;DHT22;16450;50.288;10.966;2023-03-26T18:17:46;7.50;99.90
29501;DHT22;16450;50.288;10.966;2023-03-26T18:20:50;7.50;99.90
29501;DHT22;16450;50.288;10.966;2023-03-26T18:23:52;7.50;99.90
29501;DHT22;16450;50.288;10.966;2023-03-26T18:27:14;7.50;99.90
29501;DHT22;16450;50.288;10.966;2023-03-26T18:30:21;7.50;99.90
29501;DHT22;16450;50.288;10.966;2023-03-26T18:33:24;7.40;99.90
29501;DHT22;16450;50.288;10.966;2023-03-26T18:36:26;7.50;99.90
29501;DHT22;16450;50.288;10.966;2023-03-26T18:39:28;7.50;99.90
29501;DHT22;16450;50.288;10.966;2023-03-26T18:42:31;7.50;99.90
29501;DHT22;16450;50.288;10.966;2023-03-26T18:45:35;7.40;99.90
29501;DHT22;16450;50.288;10.966;2023-03-26T18:48:38;7.40;99.90
29501;DHT22;16450;50.288;10.966;2023-03-26T18:51:44;7.30;99.90
29501;DHT22;16450;50.288;10.966;2023-03-26T18:54:58;7.20;99.90
29501;DHT22;16450;50.288;10.966;2023-03-26T18:58:17;7.00;99.90
29501;DHT22;16450;50.288;10.966;2023-03-26T19:01:21;6.80;99.90
29501;DHT22;16450;50.288;10.966;2023-03-26T19:04:27;6.70;99.90
29501;DHT22;16450;50.288;10.966;2023-03-26T19:07:32;6.60;99.90
29501;DHT22;16450;50.288;10.966;2023-03-26T19:10:36;6.20;99.90
29501;DHT22;16450;50.288;10.966;2023-03-26T19:13:38;6.40;99.90
29501;DHT22;16450;50.288;10.966;2023-03-26T19:16:53;6.30;99.90
29501;DHT22;16450;50.288;10.966;2023-03-26T19:19:57;6.30;99.90
29501;DHT22;16450;50.288;10.966;2023-03-26T19:22:59;6.30;99.90
29501;DHT22;16450;50.288;10.966;2023-03-26T19:26:03;6.30;99.90
29501;DHT22;16450;50.288;10.966;2023-03-26T19:29:05;6.30;99.90
29501;DHT22;16450;50.288;10.966;2023-03-26T19:32:20;6.30;99.90
29501;DHT22;16450;50.288;10.966;2023-03-26T19:35:23;6.30;99.90
29501;DHT22;16450;50.288;10.966;2023-03-26T19:38:27;6.20;99.90
29501;DHT22;16450;50.288;10.966;2023-03-26T19:41:33;6.20;99.90
29501;DHT22;16450;50.288;10.966;2023-03-26T19:44:36;6.30;99.90
29501;DHT22;16450;50.288;10.966;2023-03-26T19:47:43;6.30;99.90
29501;DHT22;16450;50.288;10.966;2023-03-26T19:51:03;6.30;99.90
29501;DHT22;16450;50.288;10.966;2023-03-26T19:54:14;6.20;99.90
29501;DHT22;16450;50.288;10.966;2023-03-26T19:57:17;6.20;99.90
29501;DHT22;16450;50.288;10.966;2023-03-26T20:00:19;6.20;99.90
29501;DHT22;16450;50.288;10.966;2023-03-26T20:03:25;6.20;99.90
29501;DHT22;16450;50.288;10.966;2023-03-26T20:06:28;6.20;99.90
29501;DHT22;16450;50.288;10.966;2023-03-26T20:09:43;6.20;99.90
29501;DHT22;16450;50.288;10.966;2023-03-26T20:12:46;6.20;99.90
29501;DHT22;16450;50.288;10.966;2023-03-26T20:16:05;6.20;99.90
29501;DHT22;16450;50.288;10.966;2023-03-26T20:19:08;6.20;99.90
29501;DHT22;16450;50.288;10.966;2023-03-26T20:22:15;6.20;99.90
29501;DHT22;16450;50.288;10.966;2023-03-26T20:25:22;6.20;99.90
29501;DHT22;16450;50.288;10.966;2023-03-26T20:28:26;6.20;99.90
29501;DHT22;16450;50.288;10.966;2023-03-26T20:31:28;6.20;99.90
29501;DHT22;16450;50.288;10.966;2023-03-26T20:34:31;6.20;99.90
29501;DHT22;16450;50.288;10.966;2023-03-26T20:37:32;6.30;99.90
29501;DHT22;16450;50.288;10.966;2023-03-26T20:40:34;6.20;99.90
29501;DHT22;16450;50.288;10.966;2023-03-26T20:43:36;6.30;99.90
29501;DHT22;16450;50.288;10.966;2023-03-26T20:46:38;6.30;99.90
29501;DHT22;16450;50.288;10.966;2023-03-26T20:49:40;6.30;99.90
29501;DHT22;16450;50.288;10.966;2023-03-26T20:52:43;6.30;99.90
29501;DHT22;16450;50.288;10.966;2023-03-26T20:55:45;6.30;99.90
29501;DHT22;16450;50.288;10.966;2023-03-26T20:58:47;6.50;99.90
29501;DHT22;16450;50.288;10.966;2023-03-26T21:02:11;6.30;99.90
29501;DHT22;16450;50.288;10.966;2023-03-26T21:05:13;6.30;99.90
29501;DHT22;16450;50.288;10.966;2023-03-26T21:08:17;6.30;99.90
29501;DHT22;16450;50.288;10.966;2023-03-26T21:11:33;6.30;99.90
29501;DHT22;16450;50.288;10.966;2023-03-26T21:14:39;6.30;99.90
29501;DHT22;16450;50.288;10.966;2023-03-26T21:17:45;6.30;99.90
29501;DHT22;16450;50.288;10.966;2023-03-26T21:20:56;6.30;99.90
29501;DHT22;16450;50.288;10.966;2023-03-26T21:27:49;6.30;99.90
29501;DHT22;16450;50.288;10.966;2023-03-26T21:30:53;6.20;99.90
29501;DHT22;16450;50.288;10.966;2023-03-26T21:33:56;6.20;99.90
29501;DHT22;16450;50.288;10.966;2023-03-26T21:36:59;6.20;99.90
29501;DHT22;16450;50.288;10.966;2023-03-26T21:40:01;6.30;99.90
29501;DHT22;16450;50.288;10.966;2023-03-26T21:43:13;6.20;99.90
29501;DHT22;16450;50.288;10.966;2023-03-26T21:46:16;6.20;99.90
29501;DHT22;16450;50.288;10.966;2023-03-26T21:49:18;6.30;99.90
29501;DHT22;16450;50.288;10.966;2023-03-26T21:52:21;6.30;99.90
29501;DHT22;16450;50.288;10.966;2023-03-26T21:55:23;6.30;99.90
29501;DHT22;16450;50.288;10.966;2023-03-26T21:58:37;6.30;99.90
29501;DHT22;16450;50.288;10.966;2023-03-26T22:01:48;6.30;99.90
29501;DHT22;16450;50.288;10.966;2023-03-26T22:05:04;6.30;99.90
29501;DHT22;16450;50.288;10.966;2023-03-26T22:08:20;6.30;99.90
29501;DHT22;16450;50.288;10.966;2023-03-26T22:11:24;6.30;99.90
29501;DHT22;16450;50.288;10.966;2023-03-26T22:14:26;6.30;99.90
29501;DHT22;16450;50.288;10.966;2023-03-26T22:17:28;6.30;99.90
29501;DHT22;16450;50.288;10.966;2023-03-26T22:20:30;6.30;99.90
29501;DHT22;16450;50.288;10.966;2023-03-26T22:23:32;6.30;99.90
29501;DHT22;16450;50.288;10.966;2023-03-26T22:26:38;6.30;99.90
29501;DHT22;16450;50.288;10.966;2023-03-26T22:29:40;6.30;99.90
29501;DHT22;16450;50.288;10.966;2023-03-26T22:32:43;6.20;99.90
29501;DHT22;16450;50.288;10.966;2023-03-26T22:35:45;6.20;99.90
29501;DHT22;16450;50.288;10.966;2023-03-26T22:38:47;6.20;99.90
29501;DHT22;16450;50.288;10.966;2023-03-26T22:41:49;6.20;99.90
29501;DHT22;16450;50.288;10.966;2023-03-26T22:44:51;6.20;99.90
29501;DHT22;16450;50.288;10.966;2023-03-26T22:47:53;6.20;99.90
29501;DHT22;16450;50.288;10.966;2023-03-26T22:51:06;6.20;99.90
29501;DHT22;16450;50.288;10.966;2023-03-26T22:54:08;6.20;99.90
29501;DHT22;16450;50.288;10.966;2023-03-26T22:57:10;6.20;99.90
29501;DHT22;16450;50.288;10.966;2023-03-26T23:00:13;6.20;99.90
29501;DHT22;16450;50.288;10.966;2023-03-26T23:03:18;6.20;99.90
29501;DHT22;16450;50.288;10.966;2023-03-26T23:06:36;6.10;99.90
29501;DHT22;16450;50.288;10.966;2023-03-26T23:09:37;6.20;99.90
29501;DHT22;16450;50.288;10.966;2023-03-26T23:12:39;6.20;99.90
29501;DHT22;16450;50.288;10.966;2023-03-26T23:15:42;6.10;99.90
29501;DHT22;16450;50.288;10.966;2023-03-26T23:18:45;6.10;99.90
29501;DHT22;16450;50.288;10.966;2023-03-26T23:21:47;6.10;99.90
29501;DHT22;16450;50.288;10.966;2023-03-26T23:24:49;6.10;99.90
29501;DHT22;16450;50.288;10.966;2023-03-26T23:27:52;6.10;99.90
29501;DHT22;16450;50.288;10.966;2023-03-26T23:30:54;6.00;99.90
29501;DHT22;16450;50.288;10.966;2023-03-26T23:33:58;6.00;99.90
29501;DHT22;16450;50.288;10.966;2023-03-26T23:36:59;6.00;99.90
29501;DHT22;16450;50.288;10.966;2023-03-26T23:40:02;6.00;99.90
29501;DHT22;16450;50.288;10.966;2023-03-26T23:43:10;6.00;99.90
29501;DHT22;16450;50.288;10.966;2023-03-26T23:46:12;5.90;99.90
29501;DHT22;16450;50.288;10.966;2023-03-26T23:49:18;5.90;99.90
29501;DHT22;16450;50.288;10.966;2023-03-26T23:52:21;5.90;99.90
29501;DHT22;16450;50.288;10.966;2023-03-26T23:55:24;5.90;99.90
29501;DHT22;16450;50.288;10.966;2023-03-26T23:58:29;5.90;99.90
